• pl
  • eng

Awiacja
NEWS
last updated: 12.09.2019 14:49<\/div>
Dear users,
We would like to inform you that from September 2nd a test form of the GAFOR forecast is available on our webpage. Please send your comments and suggestions to gafor@imgw.pl that will contribute to product development.
Military airports TAF 21:30 14.11.2019

TAF EPCE 142000Z 1421/1506 14006KT 6000 SCT010 TEMPO 1421/1506
VRB02KT 3000 MIFG BR BKN006 BKN010 PROB40 TEMPO 1421/1506 0600
FG BKN003=

TAF EPDA 142000Z 1421/1506 09006KT 5000 MIFG BR BKN015
PROB40 TEMPO 1421/1506 VRB02KT 3000 MIFG BR BKN005 OVC010=

TAF EPDE 142000Z 1421/1506 06006KT 6000 SCT007 BKN012 OVC025
BECMG 1500/1502 4000 RA DZ BR BKN005 OVC012
TEMPO 1502/1506 2000 RA DZ BR=

TAF EPKS 142000Z 1421/1506 10012KT 9999 BKN010
TEMPO 1421/1506 BKN007
PROB30 1500/1506 5000 BR BKN005=

TAF EPLK 142000Z 1421/1506 08008KT 9999 BKN005
PROB30 1423/1506 3000 BR BKN003=

TAF EPLY 142000Z 1421/1506 10008KT 8000 BKN008 BKN011 PROB30
1502/1506 3000 BR BKN005=

TAF EPMB 142000Z 1421/1506 12006KT 5000 BR OVC013 PROB30 1422/1506
3000 BR BKN003 OVC010=

TAF EPMI 142000Z 1421/1506 10012KT 5000 BR BKN008
TEMPO 1421/1506 2000 BR BKN005=

TAF EPMM 142000Z 1421/1506 09008KT 8000 OVC005 BECMG 1500/1503 3000
BR OVC003 PROB30 1503/1506 0700 DZ FG OVC002=

TAF EPOK 142000Z 1421/1506 16005KT 9999 BKN014 TEMPO 1421/1506 6000
SCT006 BKN010 BECMG 1501/1504 09008KT=

TAF EPPR 142000Z 1421/1506 VRB02KT 5000 BR SCT010 BKN015 PROB40 TEMPO
1500/1506 3000 BR BKN006 BECMG 1500/1503 10006KT=

TAF EPPW 142000Z 1421/1506 10012KT 8000 BKN008
TEMPO 1423/1506 5000 BR BKN005=

TAF EPRA 142000Z 1421/1506 05005KT 8000 BKN017 BECMG 1500/1502 5000
BR BKN005 OVC010 TEMPO 1501/1506 3000 -DZ BR BKN003=

TAF EPSN 142000Z 1421/1506 11012KT 8000 BKN007
TEMPO 1421/1506 5000 BR BKN005=

TAF AMD EPTM 142153Z 1421/1506 CNL=
Awiacja.imgw.pl jest pogodowym serwisem informacyjnym
Instytutu Meteorologii i Gospodarki Wodnej Państwowego Instytutu Badawczego.
Copyright IMGW PIB 2009-2019© Wszelkie prawa zastrzeżone.